Aérodrome :
LOGIN :

S'inscrire | Disclaimer

   EN    FR    IT 

 










Légende :    VFR   VFR Marginal   IFR   IFR Intensif   IFR Très Intensif
Visi : 
Plafond : 
>= 8 km
>= 3000ft
5 à 8 km
1000 à 3000 ft
1500m à 5 km
500 à 1000 ft
800 à 1500m
200 à 500 ft
< 800m
< 200 ft
Symboles :   Orages  Brouillard  Fortes neiges  Fortes précipitations  Vent > 20 kt
SIGMETs :   Divers  Orages  Givrage  Turbulence  Onde Orograph.  Cendres Volcan.







- Altitude de l'aérodrome : 1411 ft
- Code IATA : ZHI


LSZG - Grenchen

DERNIER METAR :
  • 011720Z 25020KT 8000 -RA SCT019 BKN023 05/03 Q1011 NOSIG

METARs EXPIRÉS :
  • 011650Z 25017KT 8000 RA BKN024 06/03 Q1011 NOSIG
  • 011620Z 25014KT 7000 -SHRA FEW014 BKN026 06/03 Q1011 REDZ NOSIG
  • 011550Z 24015KT 9999 -RA FEW018 SCT026 BKN047 06/03 Q1011 NOSIG
  • 011520Z 25018KT 9999 -RA FEW018 SCT023 BKN040 06/03 Q1011 NOSIG
  • 011450Z 25017KT 9999 -SHRA FEW018 SCT023 BKN073 06/03 Q1011 NOSIG

TAF TAF LSZG
Valide du 01 à 15h jusqu'au 02 à 00h UTC


011425Z 0115/0124 25018G28KT 9999 -RA FEW018 BKN023
BECMG 0118/0122 RA BKN012
PROB30 0120/0124 4000 BKN009
ATIS : +41 32 396 96 33
Pas de NOTAMs connus pour ce terrain.



MET'MAP, la Météo Aéronautique d'un coup d'oeil ! - Copyright ORBIFLY Décembre 2007 - Disclaimer

ORBIFLY MET'MAP TEAM :

Programmation & Développement : Alexandra Zaïnal
Conception & Développement : Baudouin d'Aumeries
Co-Programmation & Développement : Marc-Olivier Méhu
Soutien technique & logistique : Manuel Goepfert

Contact : metmap@orbifly.com




SOURCES & CREDITS :

   NOAA